createdAt,value
2022-11-24T00:00:56.526Z,974.65
2022-11-24T00:01:56.558Z,974.66
2022-11-24T00:02:56.661Z,974.67
2022-11-24T00:03:56.520Z,974.68
2022-11-24T00:04:56.487Z,974.69
2022-11-24T00:05:56.479Z,974.70
2022-11-24T00:06:56.462Z,974.71
2022-11-24T00:07:56.499Z,974.73
2022-11-24T00:08:56.439Z,974.72
2022-11-24T00:09:56.434Z,974.74
2022-11-24T00:10:56.453Z,974.74
2022-11-24T00:11:56.412Z,974.75
2022-11-24T00:12:56.418Z,974.76
2022-11-24T00:13:56.395Z,974.77
2022-11-24T00:14:56.383Z,974.78
2022-11-24T00:15:56.372Z,974.80
2022-11-24T00:16:56.544Z,974.82
2022-11-24T00:17:56.364Z,974.83
2022-11-24T00:18:56.353Z,974.81
2022-11-24T00:19:56.328Z,974.80
2022-11-24T00:20:56.316Z,974.79
2022-11-24T00:21:56.306Z,974.78
2022-11-24T00:22:56.291Z,974.78
2022-11-24T00:23:56.306Z,974.80
2022-11-24T00:24:56.269Z,974.80
2022-11-24T00:25:56.262Z,974.78
2022-11-24T00:26:56.250Z,974.79
2022-11-24T00:27:56.242Z,974.81
2022-11-24T00:28:56.228Z,974.77
2022-11-24T00:29:56.243Z,974.80
2022-11-24T00:30:56.290Z,974.80
2022-11-24T00:31:56.195Z,974.80
2022-11-24T00:32:56.183Z,974.82
2022-11-24T00:33:56.180Z,974.84
2022-11-24T00:34:56.164Z,974.84
2022-11-24T00:35:56.178Z,974.86
2022-11-24T00:36:56.146Z,974.86
2022-11-24T00:37:56.137Z,974.87
2022-11-24T00:38:56.137Z,974.88
2022-11-24T00:39:56.114Z,974.87
2022-11-24T00:40:56.098Z,974.89
2022-11-24T00:41:56.113Z,974.90
2022-11-24T00:42:56.094Z,974.91
2022-11-24T00:43:56.068Z,974.89
2022-11-24T00:44:56.080Z,974.91
2022-11-24T00:45:56.247Z,974.91
2022-11-24T00:46:56.208Z,974.93
2022-11-24T00:47:56.026Z,974.94
2022-11-24T00:48:56.013Z,974.95
2022-11-24T00:49:56.031Z,974.97
2022-11-24T00:50:55.992Z,974.97
2022-11-24T00:51:55.985Z,974.98
2022-11-24T00:52:55.997Z,975.00
2022-11-24T00:53:55.965Z,975.01
2022-11-24T00:54:55.973Z,975.03
2022-11-24T00:55:55.946Z,975.03
2022-11-24T00:56:55.953Z,975.05
2022-11-24T00:57:55.925Z,975.05
2022-11-24T00:58:55.908Z,975.03
2022-11-24T00:59:55.902Z,975.07
2022-11-24T01:00:55.918Z,975.08
2022-11-24T01:01:55.907Z,975.11
2022-11-24T01:02:55.971Z,975.12
2022-11-24T01:03:55.883Z,975.17
2022-11-24T01:04:55.869Z,975.18
2022-11-24T01:05:55.833Z,975.20
2022-11-24T01:06:55.827Z,975.23
2022-11-24T01:07:55.888Z,975.21
2022-11-24T01:08:55.808Z,975.21
2022-11-24T01:09:55.789Z,975.22
2022-11-24T01:10:55.847Z,975.22
2022-11-24T01:11:55.775Z,975.24
2022-11-24T01:12:55.761Z,975.28
2022-11-24T01:13:55.767Z,975.25
2022-11-24T01:14:55.740Z,975.28
2022-11-24T01:15:55.791Z,975.32
2022-11-24T01:16:55.769Z,975.34
2022-11-24T01:17:55.705Z,975.37
2022-11-24T01:18:55.723Z,975.37
2022-11-24T01:19:55.684Z,975.34
2022-11-24T01:20:55.681Z,975.31
2022-11-24T01:21:55.662Z,975.32
2022-11-24T01:22:55.658Z,975.33
2022-11-24T01:23:55.640Z,975.31
2022-11-24T01:24:55.655Z,975.32
2022-11-24T01:25:55.621Z,975.33
2022-11-24T01:26:55.614Z,975.35
2022-11-24T01:27:55.599Z,975.35
2022-11-24T01:28:55.591Z,975.32
2022-11-24T01:29:55.577Z,975.32
2022-11-24T01:30:55.626Z,975.32
2022-11-24T01:31:55.558Z,975.32
2022-11-24T01:32:55.547Z,975.31
2022-11-24T01:33:55.536Z,975.34
2022-11-24T01:34:55.549Z,975.35
2022-11-24T01:35:55.516Z,975.36
2022-11-24T01:36:55.504Z,975.36
2022-11-24T01:37:55.492Z,975.35
2022-11-24T01:38:55.485Z,975.38
2022-11-24T01:39:55.471Z,975.38
2022-11-24T01:40:55.484Z,975.38
2022-11-24T01:41:55.451Z,975.40
2022-11-24T01:42:55.469Z,975.38
2022-11-24T01:43:55.452Z,975.38
2022-11-24T01:44:55.425Z,975.39
2022-11-24T01:45:55.506Z,975.39
2022-11-24T01:46:55.420Z,975.42
2022-11-24T01:47:55.405Z,975.41
2022-11-24T01:48:55.378Z,975.42
2022-11-24T01:49:55.365Z,975.40
2022-11-24T01:50:55.358Z,975.40
2022-11-24T01:51:55.365Z,975.43
2022-11-24T01:52:55.332Z,975.45
2022-11-24T01:53:55.330Z,975.48
2022-11-24T01:54:55.319Z,975.50
2022-11-24T01:55:55.302Z,975.46
2022-11-24T01:56:55.294Z,975.50
2022-11-24T01:57:55.305Z,975.52
2022-11-24T01:58:55.270Z,975.55
2022-11-24T01:59:55.261Z,975.54
2022-11-24T02:00:55.251Z,975.54
2022-11-24T02:01:55.337Z,975.56
2022-11-24T02:02:55.365Z,975.56
2022-11-24T02:03:55.232Z,975.55
2022-11-24T02:04:55.207Z,975.56
2022-11-24T02:05:55.217Z,975.59
2022-11-24T02:06:55.187Z,975.56
2022-11-24T02:07:55.289Z,975.57
2022-11-24T02:08:55.165Z,975.58
2022-11-24T02:09:55.153Z,975.58
2022-11-24T02:10:55.141Z,975.60
2022-11-24T02:11:55.153Z,975.61
2022-11-24T02:12:55.122Z,975.60
2022-11-24T02:13:55.109Z,975.63
2022-11-24T02:14:55.102Z,975.64
2022-11-24T02:15:55.113Z,975.67
2022-11-24T02:16:55.075Z,975.66
2022-11-24T02:17:55.088Z,975.67
2022-11-24T02:18:55.055Z,975.71
2022-11-24T02:19:55.050Z,975.71
2022-11-24T02:20:55.035Z,975.71
2022-11-24T02:21:55.029Z,975.71
2022-11-24T02:22:55.028Z,975.73
2022-11-24T02:23:55.026Z,975.74
2022-11-24T02:24:54.999Z,975.76
2022-11-24T02:25:54.981Z,975.78
2022-11-24T02:26:54.978Z,975.81
2022-11-24T02:27:54.961Z,975.82
2022-11-24T02:28:54.959Z,975.85
2022-11-24T02:29:54.963Z,975.85
2022-11-24T02:30:55.067Z,975.85
2022-11-24T02:31:54.916Z,975.87
2022-11-24T02:32:54.914Z,975.88
2022-11-24T02:33:54.897Z,975.87
2022-11-24T02:34:54.891Z,975.89
2022-11-24T02:35:54.896Z,975.87
2022-11-24T02:36:54.868Z,975.85
2022-11-24T02:37:54.857Z,975.86
2022-11-24T02:38:54.848Z,975.86
2022-11-24T02:39:54.861Z,975.86
2022-11-24T02:40:54.832Z,975.85
2022-11-24T02:41:54.825Z,975.84
2022-11-24T02:42:54.808Z,975.82
2022-11-24T02:43:54.792Z,975.82
2022-11-24T02:44:54.781Z,975.78
2022-11-24T02:45:54.833Z,975.81
2022-11-24T02:46:54.762Z,975.80
2022-11-24T02:47:54.746Z,975.76
2022-11-24T02:48:54.741Z,975.75
2022-11-24T02:49:54.726Z,975.73
2022-11-24T02:50:54.743Z,975.73
2022-11-24T02:51:54.708Z,975.73
2022-11-24T02:52:54.701Z,975.74
2022-11-24T02:53:54.690Z,975.75
2022-11-24T02:54:54.681Z,975.73
2022-11-24T02:55:54.662Z,975.75
2022-11-24T02:56:54.678Z,975.76
2022-11-24T02:57:54.652Z,975.71
2022-11-24T02:58:54.632Z,975.73
2022-11-24T02:59:54.629Z,975.75
2022-11-24T03:00:54.611Z,975.79
2022-11-24T03:01:54.657Z,975.81
2022-11-24T03:02:54.734Z,975.85
2022-11-24T03:03:54.697Z,975.87
2022-11-24T03:04:54.572Z,975.87
2022-11-24T03:05:54.563Z,975.85
2022-11-24T03:06:54.549Z,975.86
2022-11-24T03:07:54.598Z,975.87
2022-11-24T03:08:54.549Z,975.86
2022-11-24T03:09:54.519Z,975.86
2022-11-24T03:10:54.511Z,975.86
2022-11-24T03:11:54.490Z,975.86
2022-11-24T03:12:54.485Z,975.87
2022-11-24T03:13:54.485Z,975.86
2022-11-24T03:14:54.484Z,975.87
2022-11-24T03:15:54.495Z,975.88
2022-11-24T03:16:54.446Z,975.88
2022-11-24T03:17:54.428Z,975.87
2022-11-24T03:18:54.421Z,975.87
2022-11-24T03:19:54.431Z,975.90
2022-11-24T03:20:54.402Z,975.93
2022-11-24T03:21:54.390Z,975.93
2022-11-24T03:22:54.383Z,975.95
2022-11-24T03:23:54.371Z,975.98
2022-11-24T03:24:54.357Z,975.99
2022-11-24T03:25:54.372Z,976.02
2022-11-24T03:26:54.344Z,976.03
2022-11-24T03:27:54.321Z,976.06
2022-11-24T03:28:54.319Z,976.05
2022-11-24T03:29:54.300Z,976.04
2022-11-24T03:30:54.336Z,976.04
2022-11-24T03:31:54.303Z,976.06
2022-11-24T03:32:54.296Z,976.05
2022-11-24T03:33:54.263Z,976.04
2022-11-24T03:34:54.254Z,976.05
2022-11-24T03:35:54.237Z,976.05
2022-11-24T03:36:54.233Z,976.08
2022-11-24T03:37:54.220Z,976.10
2022-11-24T03:38:54.231Z,976.12
2022-11-24T03:39:54.216Z,976.13
2022-11-24T03:40:54.189Z,976.15
2022-11-24T03:41:54.177Z,976.13
2022-11-24T03:42:54.166Z,976.14
2022-11-24T03:43:54.154Z,976.16
2022-11-24T03:44:54.173Z,976.16
2022-11-24T03:45:54.171Z,976.17
2022-11-24T03:46:54.126Z,976.19
2022-11-24T03:47:54.116Z,976.18
2022-11-24T03:48:54.127Z,976.17
2022-11-24T03:49:54.089Z,976.18
2022-11-24T03:50:54.084Z,976.16
2022-11-24T03:51:54.072Z,976.15
2022-11-24T03:52:54.063Z,976.18
2022-11-24T03:53:54.072Z,976.20
2022-11-24T03:54:54.039Z,976.21
2022-11-24T03:55:54.037Z,976.21
2022-11-24T03:56:54.017Z,976.25
2022-11-24T03:57:54.004Z,976.24
2022-11-24T03:58:54.018Z,976.25
2022-11-24T03:59:53.984Z,976.26
2022-11-24T04:00:53.976Z,976.28
2022-11-24T04:01:54.036Z,976.26
2022-11-24T04:02:53.993Z,976.28
2022-11-24T04:03:53.944Z,976.29
2022-11-24T04:04:53.959Z,976.28
2022-11-24T04:05:53.922Z,976.27
2022-11-24T04:06:53.912Z,976.27
2022-11-24T04:07:54.058Z,976.25
2022-11-24T04:08:53.892Z,976.21
2022-11-24T04:09:53.878Z,976.22
2022-11-24T04:10:53.897Z,976.22
2022-11-24T04:11:53.858Z,976.20
2022-11-24T04:12:53.848Z,976.24
2022-11-24T04:13:53.835Z,976.27
2022-11-24T04:14:53.831Z,976.26
2022-11-24T04:15:53.875Z,976.30
2022-11-24T04:16:53.826Z,976.30
2022-11-24T04:17:53.794Z,976.28
2022-11-24T04:18:53.789Z,976.30
2022-11-24T04:19:53.791Z,976.38
2022-11-24T04:20:53.786Z,976.36
2022-11-24T04:21:53.748Z,976.39
2022-11-24T04:22:53.746Z,976.41
2022-11-24T04:23:53.749Z,976.42
2022-11-24T04:24:53.720Z,976.45
2022-11-24T04:25:53.728Z,976.45
2022-11-24T04:26:53.721Z,976.47
2022-11-24T04:27:53.687Z,976.46
2022-11-24T04:28:53.681Z,976.44
2022-11-24T04:29:53.663Z,976.51
2022-11-24T04:30:53.716Z,976.48
2022-11-24T04:31:53.654Z,976.49
2022-11-24T04:32:53.657Z,976.51
2022-11-24T04:33:53.664Z,976.53
2022-11-24T04:34:53.618Z,976.55
2022-11-24T04:35:53.599Z,976.57
2022-11-24T04:36:53.610Z,976.58
2022-11-24T04:37:53.582Z,976.62
2022-11-24T04:39:25.422Z,976.63
2022-11-24T04:39:53.588Z,976.66
2022-11-24T04:40:53.550Z,976.66
2022-11-24T04:41:53.535Z,976.69
2022-11-24T04:42:53.534Z,976.73
2022-11-24T04:43:53.517Z,976.72
2022-11-24T04:44:53.508Z,976.72
2022-11-24T04:45:53.512Z,976.72
2022-11-24T04:46:53.541Z,976.71
2022-11-24T04:47:53.471Z,976.70
2022-11-24T04:48:53.491Z,976.66
2022-11-24T04:49:53.449Z,976.69
2022-11-24T04:50:53.445Z,976.71
2022-11-24T04:51:53.431Z,976.70
2022-11-24T04:52:53.424Z,976.72
2022-11-24T04:53:53.431Z,976.72
2022-11-24T04:54:53.403Z,976.72
2022-11-24T04:55:53.388Z,976.73
2022-11-24T04:56:53.381Z,976.76
2022-11-24T04:57:53.386Z,976.77
2022-11-24T04:58:53.359Z,976.78
2022-11-24T04:59:53.350Z,976.80
2022-11-24T05:00:53.339Z,976.80
2022-11-24T05:01:53.473Z,976.81
2022-11-24T05:02:53.320Z,976.79
2022-11-24T05:03:53.388Z,976.82
2022-11-24T05:04:53.297Z,976.83
2022-11-24T05:05:53.284Z,976.85
2022-11-24T05:06:53.293Z,976.87
2022-11-24T05:07:53.319Z,976.88
2022-11-24T05:08:53.270Z,976.91
2022-11-24T05:09:59.312Z,976.94
2022-11-24T05:10:53.248Z,976.94
2022-11-24T05:11:53.216Z,976.94
2022-11-24T05:12:53.211Z,976.94
2022-11-24T05:13:53.217Z,976.96
2022-11-24T05:14:53.209Z,976.98
2022-11-24T05:15:53.222Z,977.00
2022-11-24T05:16:53.184Z,977.02
2022-11-24T05:17:53.175Z,977.06
2022-11-24T05:18:53.151Z,977.11
2022-11-24T05:19:53.153Z,977.11
2022-11-24T05:20:53.121Z,977.12
2022-11-24T05:21:53.129Z,977.09
2022-11-24T05:22:53.053Z,977.09
2022-11-24T05:23:53.075Z,977.07
2022-11-24T05:24:53.024Z,977.08
2022-11-24T05:25:53.028Z,977.10
2022-11-24T05:26:53.004Z,977.12
2022-11-24T05:27:53.011Z,977.11
2022-11-24T05:28:52.993Z,977.12
2022-11-24T05:29:53.013Z,977.11
2022-11-24T05:30:52.968Z,977.12
2022-11-24T05:31:53.017Z,977.15
2022-11-24T05:32:52.942Z,977.15
2022-11-24T05:33:52.945Z,977.17
2022-11-24T05:34:52.921Z,977.19
2022-11-24T05:35:52.942Z,977.22
2022-11-24T05:36:52.909Z,977.24
2022-11-24T05:37:52.904Z,977.29
2022-11-24T05:38:52.876Z,977.32
2022-11-24T05:39:52.891Z,977.35
2022-11-24T05:40:52.858Z,977.34
2022-11-24T05:41:52.887Z,977.35
2022-11-24T05:42:52.837Z,977.35
2022-11-24T05:43:52.841Z,977.32
2022-11-24T05:44:52.832Z,977.30
2022-11-24T05:45:52.829Z,977.28
2022-11-24T05:46:52.838Z,977.26
2022-11-24T05:47:52.799Z,977.26
2022-11-24T05:48:52.775Z,977.28
2022-11-24T05:49:52.787Z,977.28
2022-11-24T05:50:52.789Z,977.27
2022-11-24T05:51:52.760Z,977.29
2022-11-24T05:52:52.734Z,977.29
2022-11-24T05:53:52.737Z,977.34
2022-11-24T05:54:52.714Z,977.38
2022-11-24T05:55:52.717Z,977.42
2022-11-24T05:56:52.711Z,977.45
2022-11-24T05:57:52.689Z,977.46
2022-11-24T05:58:52.662Z,977.47
2022-11-24T05:59:52.673Z,977.47
2022-11-24T06:00:52.648Z,977.48
2022-11-24T06:01:52.759Z,977.50
2022-11-24T06:02:52.714Z,977.50
2022-11-24T06:03:52.622Z,977.52
2022-11-24T06:04:52.599Z,977.55
2022-11-24T06:05:52.602Z,977.55
2022-11-24T06:06:52.581Z,977.56
2022-11-24T06:07:52.663Z,977.58
2022-11-24T06:08:52.578Z,977.57
2022-11-24T06:09:52.562Z,977.58
2022-11-24T06:10:53.649Z,977.58
2022-11-24T06:11:52.545Z,977.55
2022-11-24T06:12:52.515Z,977.55
2022-11-24T06:13:52.578Z,977.57
2022-11-24T06:14:52.493Z,977.57
2022-11-24T06:15:52.498Z,977.58
2022-11-24T06:16:52.502Z,977.61
2022-11-24T06:17:52.481Z,977.61
2022-11-24T06:18:52.455Z,977.60
2022-11-24T06:19:52.483Z,977.59
2022-11-24T06:21:09.869Z,977.58
2022-11-24T06:21:52.449Z,977.55
2022-11-24T06:22:52.408Z,977.55
2022-11-24T06:23:52.418Z,977.52
2022-11-24T06:24:52.387Z,977.50
2022-11-24T06:25:52.420Z,977.48
2022-11-24T06:26:52.365Z,977.47
2022-11-24T06:27:52.363Z,977.47
2022-11-24T06:28:52.343Z,977.52
2022-11-24T06:29:52.346Z,977.58
2022-11-24T06:30:52.325Z,977.59
2022-11-24T06:31:52.469Z,977.63
2022-11-24T06:32:52.300Z,977.63
2022-11-24T06:33:52.311Z,977.63
2022-11-24T06:34:52.277Z,977.62
2022-11-24T06:35:52.282Z,977.64
2022-11-24T06:36:52.310Z,977.65
2022-11-24T06:37:52.335Z,977.59
2022-11-24T06:38:52.290Z,977.56
2022-11-24T06:39:52.293Z,977.57
2022-11-24T06:40:52.279Z,977.58
2022-11-24T06:41:52.248Z,977.56
2022-11-24T06:42:52.203Z,977.58
2022-11-24T06:43:52.277Z,977.62
2022-11-24T06:44:52.225Z,977.64
2022-11-24T06:45:52.303Z,977.66
2022-11-24T06:46:52.213Z,977.67
2022-11-24T06:47:52.211Z,977.69
2022-11-24T06:48:52.205Z,977.69
2022-11-24T06:49:52.192Z,977.67
2022-11-24T06:50:52.186Z,977.69
2022-11-24T06:51:52.175Z,977.73
2022-11-24T06:52:52.151Z,977.75
2022-11-24T06:53:52.168Z,977.74
2022-11-24T06:54:52.127Z,977.73
2022-11-24T06:55:52.134Z,977.77
2022-11-24T06:56:52.119Z,977.78
2022-11-24T06:57:52.109Z,977.82
2022-11-24T06:58:52.082Z,977.81
2022-11-24T06:59:52.078Z,977.82
2022-11-24T07:00:52.093Z,977.80
2022-11-24T07:01:52.083Z,977.80
2022-11-24T07:02:52.124Z,977.76
2022-11-24T07:03:52.040Z,977.77
2022-11-24T07:04:52.017Z,977.77
2022-11-24T07:05:52.023Z,977.77
2022-11-24T07:06:51.960Z,977.78
2022-11-24T07:07:52.048Z,977.79
2022-11-24T07:08:51.978Z,977.81
2022-11-24T07:09:51.932Z,977.81
2022-11-24T07:10:51.898Z,977.79
2022-11-24T07:11:51.903Z,977.82
2022-11-24T07:12:51.898Z,977.81
2022-11-24T07:13:56.717Z,977.83
2022-11-24T07:14:51.885Z,977.84
2022-11-24T07:15:51.863Z,977.81
2022-11-24T07:16:51.921Z,977.80
2022-11-24T07:17:51.861Z,977.81
2022-11-24T07:18:51.836Z,977.84
2022-11-24T07:19:51.814Z,977.85
2022-11-24T07:20:51.844Z,977.86
2022-11-24T07:21:51.856Z,977.87
2022-11-24T07:22:51.824Z,977.86
2022-11-24T07:23:51.843Z,977.89
2022-11-24T07:24:51.823Z,977.90
2022-11-24T07:25:51.772Z,977.89
2022-11-24T07:26:51.728Z,977.90
2022-11-24T07:27:51.729Z,977.91
2022-11-24T07:28:51.705Z,977.93
2022-11-24T07:29:51.707Z,977.96
2022-11-24T07:30:51.710Z,977.96
2022-11-24T07:31:51.776Z,977.99
2022-11-24T07:32:51.723Z,978.01
2022-11-24T07:33:51.689Z,978.01
2022-11-24T07:34:51.648Z,978.03
2022-11-24T07:35:51.653Z,978.06
2022-11-24T07:36:51.649Z,978.06
2022-11-24T07:37:51.686Z,978.08
2022-11-24T07:38:51.609Z,978.09
2022-11-24T07:39:51.612Z,978.10
2022-11-24T07:40:51.581Z,978.13
2022-11-24T07:41:51.604Z,978.14
2022-11-24T07:42:51.557Z,978.12
2022-11-24T07:43:51.579Z,978.15
2022-11-24T07:44:51.537Z,978.17
2022-11-24T07:45:51.687Z,978.13
2022-11-24T07:46:51.530Z,978.17
2022-11-24T07:47:51.542Z,978.17
2022-11-24T07:48:51.558Z,978.17
2022-11-24T07:49:51.527Z,978.19
2022-11-24T07:50:55.716Z,978.21
2022-11-24T07:51:51.484Z,978.23
2022-11-24T07:52:51.453Z,978.24
2022-11-24T07:53:51.463Z,978.21
2022-11-24T07:54:51.429Z,978.25
2022-11-24T07:55:51.479Z,978.25
2022-11-24T07:56:51.413Z,978.24
2022-11-24T07:57:51.412Z,978.26
2022-11-24T07:58:53.111Z,978.28
2022-11-24T07:59:51.468Z,978.28
2022-11-24T08:00:51.425Z,978.29
2022-11-24T08:01:51.582Z,978.30
2022-11-24T08:02:51.358Z,978.32
2022-11-24T08:03:51.597Z,978.34
2022-11-24T08:04:51.324Z,978.40
2022-11-24T08:06:16.125Z,978.39
2022-11-24T08:06:51.305Z,978.40
2022-11-24T08:07:51.386Z,978.37
2022-11-24T08:08:51.280Z,978.40
2022-11-24T08:09:51.281Z,978.39
2022-11-24T08:10:51.279Z,978.38
2022-11-24T08:11:51.271Z,978.40
2022-11-24T08:12:51.240Z,978.39
2022-11-24T08:13:51.271Z,978.42
2022-11-24T08:14:51.215Z,978.43
2022-11-24T08:15:51.219Z,978.44
2022-11-24T08:16:51.310Z,978.40
2022-11-24T08:17:51.204Z,978.42
2022-11-24T08:18:51.181Z,978.43
2022-11-24T08:19:51.197Z,978.45
2022-11-24T08:20:51.151Z,978.45
2022-11-24T08:21:51.156Z,978.47
2022-11-24T08:22:51.135Z,978.49
2022-11-24T08:23:51.149Z,978.51
2022-11-24T08:24:51.133Z,978.52
2022-11-24T08:25:56.667Z,978.55
2022-11-24T08:26:51.092Z,978.57
2022-11-24T08:27:51.086Z,978.59
2022-11-24T08:28:51.067Z,978.63
2022-11-24T08:29:51.067Z,978.64
2022-11-24T08:30:51.068Z,978.66
2022-11-24T08:31:51.093Z,978.66
2022-11-24T08:32:51.024Z,978.64
2022-11-24T08:33:51.025Z,978.66
2022-11-24T08:34:52.151Z,978.67
2022-11-24T08:35:51.012Z,978.66
2022-11-24T08:36:51.009Z,978.70
2022-11-24T08:37:50.990Z,978.71
2022-11-24T08:38:50.961Z,978.73
2022-11-24T08:39:50.975Z,978.77
2022-11-24T08:40:50.937Z,978.77
2022-11-24T08:41:50.939Z,978.78
2022-11-24T08:42:50.937Z,978.78
2022-11-24T08:43:50.933Z,978.80
2022-11-24T08:44:58.647Z,978.83
2022-11-24T08:45:50.932Z,978.83
2022-11-24T08:46:50.879Z,978.84
2022-11-24T08:47:50.890Z,978.82
2022-11-24T08:48:50.881Z,978.85
2022-11-24T08:49:50.859Z,978.89
2022-11-24T08:50:50.834Z,978.87
2022-11-24T08:51:50.837Z,978.86
2022-11-24T08:52:50.811Z,978.86
2022-11-24T08:53:50.814Z,978.85
2022-11-24T08:54:50.817Z,978.86
2022-11-24T08:55:50.797Z,978.87
2022-11-24T08:56:50.790Z,978.86
2022-11-24T08:57:50.778Z,978.88
2022-11-24T08:58:50.823Z,978.90
2022-11-24T08:59:50.752Z,978.90
2022-11-24T09:00:50.735Z,978.89
2022-11-24T09:01:50.775Z,978.89
2022-11-24T09:02:50.708Z,978.93
2022-11-24T09:03:51.476Z,978.95
2022-11-24T09:04:50.740Z,978.96
2022-11-24T09:05:52.560Z,978.99
2022-11-24T09:06:50.671Z,979.01
2022-11-24T09:07:50.705Z,979.04
2022-11-24T09:08:50.649Z,979.05
2022-11-24T09:09:50.675Z,979.06
2022-11-24T09:10:50.628Z,979.09
2022-11-24T09:11:50.658Z,979.07
2022-11-24T09:12:50.604Z,979.09
2022-11-24T09:13:50.610Z,979.10
2022-11-24T09:14:50.579Z,979.15
2022-11-24T09:15:50.615Z,979.10
2022-11-24T09:16:50.571Z,979.12
2022-11-24T09:17:50.569Z,979.11
2022-11-24T09:18:50.535Z,979.11
2022-11-24T09:19:50.540Z,979.20
2022-11-24T09:20:50.514Z,979.19
2022-11-24T09:21:50.548Z,979.21
2022-11-24T09:22:50.493Z,979.22
2022-11-24T09:23:50.522Z,979.24
2022-11-24T09:24:50.470Z,979.26
2022-11-24T09:25:50.473Z,979.30
2022-11-24T09:26:50.451Z,979.32
2022-11-24T09:27:50.458Z,979.35
2022-11-24T09:28:50.428Z,979.35
2022-11-24T09:29:50.462Z,979.38
2022-11-24T09:30:50.435Z,979.40
2022-11-24T09:31:50.410Z,979.41
2022-11-24T09:32:50.386Z,979.43
2022-11-24T09:33:50.393Z,979.44
2022-11-24T09:34:50.381Z,979.44
2022-11-24T09:35:50.384Z,979.43
2022-11-24T09:36:50.359Z,979.44
2022-11-24T09:37:50.336Z,979.45
2022-11-24T09:38:50.342Z,979.44
2022-11-24T09:39:50.310Z,979.47
2022-11-24T09:40:50.687Z,979.49
2022-11-24T09:41:50.290Z,979.51
2022-11-24T09:42:53.597Z,979.55
2022-11-24T09:43:50.271Z,979.55
2022-11-24T09:44:50.275Z,979.58
2022-11-24T09:46:05.174Z,979.58
2022-11-24T09:46:50.311Z,979.58
2022-11-24T09:47:50.257Z,979.57
2022-11-24T09:48:50.233Z,979.59
2022-11-24T09:49:51.727Z,979.60
2022-11-24T09:50:50.211Z,979.62
2022-11-24T09:51:50.207Z,979.61
2022-11-24T09:52:50.216Z,979.58
2022-11-24T09:53:50.163Z,979.53
2022-11-24T09:54:50.167Z,979.48
2022-11-24T09:55:50.140Z,979.47
2022-11-24T09:56:50.144Z,979.47
2022-11-24T09:57:50.169Z,979.43
2022-11-24T09:58:50.130Z,979.43
2022-11-24T09:59:50.099Z,979.44
2022-11-24T10:00:50.107Z,979.43
2022-11-24T10:01:50.177Z,979.43
2022-11-24T10:02:50.080Z,979.44
2022-11-24T10:03:50.079Z,979.43
2022-11-24T10:04:50.130Z,979.44
2022-11-24T10:05:50.039Z,979.45
2022-11-24T10:06:50.039Z,979.46
2022-11-24T10:07:50.083Z,979.47
2022-11-24T10:08:50.016Z,979.50
2022-11-24T10:09:50.011Z,979.50
2022-11-24T10:10:49.992Z,979.52
2022-11-24T10:11:49.971Z,979.54
2022-11-24T10:12:49.984Z,979.51
2022-11-24T10:13:49.949Z,979.51
2022-11-24T10:14:49.970Z,979.53
2022-11-24T10:15:49.942Z,979.54
2022-11-24T10:16:51.346Z,979.52
2022-11-24T10:17:49.907Z,979.53
2022-11-24T10:18:49.939Z,979.53
2022-11-24T10:19:49.886Z,979.55
2022-11-24T10:20:49.896Z,979.59
2022-11-24T10:21:49.869Z,979.59
2022-11-24T10:22:49.873Z,979.60
2022-11-24T10:23:49.843Z,979.58
2022-11-24T10:24:49.873Z,979.59
2022-11-24T10:25:49.842Z,979.61
2022-11-24T10:26:49.842Z,979.60
2022-11-24T10:27:49.799Z,979.61
2022-11-24T10:28:49.802Z,979.63
2022-11-24T10:29:49.781Z,979.65
2022-11-24T10:30:49.864Z,979.69
2022-11-24T10:31:49.763Z,979.71
2022-11-24T10:32:49.769Z,979.71
2022-11-24T10:33:49.737Z,979.72
2022-11-24T10:34:49.752Z,979.74
2022-11-24T10:35:49.716Z,979.75
2022-11-24T10:36:49.780Z,979.69
2022-11-24T10:37:49.695Z,979.69
2022-11-24T10:38:49.697Z,979.67
2022-11-24T10:39:49.673Z,979.68
2022-11-24T10:40:58.061Z,979.65
2022-11-24T10:41:49.657Z,979.65
2022-11-24T10:42:49.693Z,979.67
2022-11-24T10:43:49.631Z,979.67
2022-11-24T10:44:49.659Z,979.68
2022-11-24T10:45:49.643Z,979.69
2022-11-24T10:46:49.712Z,979.71
2022-11-24T10:47:49.595Z,979.74
2022-11-24T10:48:49.592Z,979.76
2022-11-24T10:49:49.567Z,979.79
2022-11-24T10:50:49.594Z,979.77
2022-11-24T10:51:49.551Z,979.79
2022-11-24T10:52:49.555Z,979.79
2022-11-24T10:53:49.522Z,979.79
2022-11-24T10:54:49.548Z,979.77
2022-11-24T10:55:49.503Z,979.78
2022-11-24T10:56:49.514Z,979.77
2022-11-24T10:57:49.490Z,979.76
2022-11-24T10:58:49.490Z,979.77
2022-11-24T10:59:49.461Z,979.76
2022-11-24T11:00:49.486Z,979.77
2022-11-24T11:01:49.541Z,979.75
2022-11-24T11:02:49.554Z,979.76
2022-11-24T11:03:49.420Z,979.76
2022-11-24T11:04:49.455Z,979.82
2022-11-24T11:05:49.398Z,979.82
2022-11-24T11:06:49.395Z,979.83
2022-11-24T11:07:49.461Z,979.87
2022-11-24T11:08:49.378Z,979.87
2022-11-24T11:09:49.367Z,979.88
2022-11-24T11:10:49.378Z,979.91
2022-11-24T11:11:49.334Z,979.90
2022-11-24T11:12:49.335Z,979.88
2022-11-24T11:13:49.313Z,979.91
2022-11-24T11:14:49.322Z,979.92
2022-11-24T11:15:49.501Z,979.92
2022-11-24T11:16:49.321Z,979.93
2022-11-24T11:17:49.270Z,979.94
2022-11-24T11:18:49.273Z,979.94
2022-11-24T11:19:50.226Z,979.95
2022-11-24T11:20:49.254Z,979.94
2022-11-24T11:21:49.228Z,979.94
2022-11-24T11:22:49.258Z,979.96
2022-11-24T11:23:49.207Z,979.97
2022-11-24T11:24:49.214Z,979.99
2022-11-24T11:25:49.186Z,979.98
2022-11-24T11:26:49.190Z,979.97
2022-11-24T11:27:49.181Z,979.97
2022-11-24T11:28:49.329Z,979.98
2022-11-24T11:31:20.705Z,979.99
2022-11-24T11:34:02.953Z,980.01
2022-11-24T11:34:12.497Z,980.01
2022-11-24T11:34:29.801Z,980.00
2022-11-24T11:35:17.977Z,980.01
2022-11-24T11:36:17.941Z,980.01
2022-11-24T11:37:17.949Z,980.03
2022-11-24T11:38:17.924Z,980.02
2022-11-24T11:39:17.944Z,980.02
2022-11-24T11:40:17.898Z,980.00
2022-11-24T11:41:17.905Z,980.03
2022-11-24T11:42:45.214Z,980.04
2022-11-24T11:43:17.889Z,980.02
2022-11-24T11:44:17.857Z,980.02
2022-11-24T11:45:18.006Z,980.01
2022-11-24T11:46:18.083Z,980.02
2022-11-24T11:47:17.834Z,980.05
2022-11-24T11:48:17.827Z,980.06
2022-11-24T11:49:17.843Z,980.11
2022-11-24T11:50:17.893Z,980.07
2022-11-24T11:51:24.990Z,980.10
2022-11-24T11:52:17.780Z,980.13
2022-11-24T11:53:17.778Z,980.15
2022-11-24T11:54:17.760Z,980.16
2022-11-24T11:55:17.751Z,980.18
2022-11-24T11:56:17.755Z,980.17
2022-11-24T11:57:17.728Z,980.14
2022-11-24T11:58:17.708Z,980.14
2022-11-24T11:59:17.731Z,980.12
2022-11-24T12:00:17.692Z,980.15
2022-11-24T12:01:17.688Z,980.22
2022-11-24T12:02:17.682Z,980.24
2022-11-24T12:03:17.812Z,980.22
2022-11-24T12:04:17.713Z,980.21
2022-11-24T12:05:17.654Z,980.23
2022-11-24T12:06:17.625Z,980.27
2022-11-24T12:07:17.666Z,980.25
2022-11-24T12:08:20.987Z,980.27
2022-11-24T12:09:20.687Z,980.23
2022-11-24T12:10:17.599Z,980.27
2022-11-24T12:11:17.587Z,980.32
2022-11-24T12:12:17.558Z,980.32
2022-11-24T12:13:17.567Z,980.35
2022-11-24T12:14:17.538Z,980.35
2022-11-24T12:15:17.567Z,980.40
2022-11-24T12:16:17.591Z,980.40
2022-11-24T12:17:17.526Z,980.36
2022-11-24T12:18:40.659Z,980.41
2022-11-24T12:19:17.500Z,980.40
2022-11-24T12:20:17.477Z,980.41
2022-11-24T12:21:22.913Z,980.45
2022-11-24T12:22:17.455Z,980.47
2022-11-24T12:23:17.458Z,980.46
2022-11-24T12:24:17.516Z,980.47
2022-11-24T12:25:17.455Z,980.48
2022-11-24T12:26:17.408Z,980.49
2022-11-24T12:27:22.564Z,980.50
2022-11-24T12:28:17.396Z,980.52
2022-11-24T12:29:17.394Z,980.53
2022-11-24T12:30:17.387Z,980.54